Time;durP1;ratioP1;P1;durP2;ratioP2;P2;SDS_P1;SDS_P2;PMS_P1;PMS_P2;Temp;Humidity;BMP_temperature;BMP_pressure;BME280_temperature;BME280_humidity;BME280_pressure;Samples;Min_cycle;Max_cycle;Signal;HPM_P1;HPM_P2
2021/12/20 00:01:59;;;;;;;18.95;10.43;;;;;;;;;;4984837;28;20019;-83
2021/12/20 00:04:25;;;;;;;20.25;9.32;;;;;;;;;;4982933;28;20484;-84
2021/12/20 00:06:51;;;;;;;16.88;9.25;;;;;;;;;;4984081;28;20078;-84
2021/12/20 00:09:17;;;;;;;19.70;10.68;;;;;;;;;;4986824;28;20437;-84
2021/12/20 00:11:43;;;;;;;18.38;8.98;;;;;;;;;;4989219;28;20034;-83
2021/12/20 00:14:09;;;;;;;18.60;9.65;;;;;;;;;;4985591;28;20115;-85
2021/12/20 00:16:35;;;;;;;15.43;8.68;;;;;;;;;;4984733;28;20511;-84
2021/12/20 00:19:01;;;;;;;18.50;9.85;;;;;;;;;;4986382;28;20117;-83
2021/12/20 00:21:27;;;;;;;16.92;8.60;;;;;;;;;;4985564;28;20033;-85
2021/12/20 00:23:53;;;;;;;15.68;8.70;;;;;;;;;;4984890;28;20042;-84
2021/12/20 00:26:19;;;;;;;17.48;9.40;;;;;;;;;;4985234;28;20030;-84
2021/12/20 00:28:45;;;;;;;17.85;9.02;;;;;;;;;;4982656;28;20519;-83
2021/12/20 00:31:11;;;;;;;20.13;10.43;;;;;;;;;;4983010;28;20035;-84
2021/12/20 00:33:37;;;;;;;17.10;8.77;;;;;;;;;;4984488;28;20054;-83
2021/12/20 00:36:07;;;;;;;19.55;8.85;;;;;;;;;;4984370;28;20592;-83
2021/12/20 00:41:18;;;;;;;17.30;9.27;;;;;;;;;;4984968;28;20081;-84
2021/12/20 00:43:44;;;;;;;18.13;9.30;;;;;;;;;;4984669;28;20043;-84
2021/12/20 00:46:10;;;;;;;14.85;9.05;;;;;;;;;;4984238;28;20027;-84
2021/12/20 00:48:37;;;;;;;17.73;8.88;;;;;;;;;;4984387;28;20031;-84
2021/12/20 00:51:03;;;;;;;15.98;8.38;;;;;;;;;;4989801;28;20010;-83
2021/12/20 00:53:29;;;;;;;15.98;8.77;;;;;;;;;;4995033;28;20042;-84
2021/12/20 00:55:55;;;;;;;20.67;9.93;;;;;;;;;;4995111;28;20054;-83
2021/12/20 00:58:21;;;;;;;17.67;9.60;;;;;;;;;;4990806;28;20034;-83
2021/12/20 01:00:48;;;;;;;17.23;9.32;;;;;;;;;;4988078;28;20086;-84
2021/12/20 01:03:16;;;;;;;17.58;9.48;;;;;;;;;;4987493;28;20170;-85
2021/12/20 01:05:42;;;;;;;14.85;8.15;;;;;;;;;;4986357;28;20046;-84
2021/12/20 01:08:08;;;;;;;14.77;8.32;;;;;;;;;;4987729;28;20038;-84
2021/12/20 01:10:36;;;;;;;18.80;8.63;;;;;;;;;;4988000;28;20046;-84
2021/12/20 01:13:02;;;;;;;14.00;8.50;;;;;;;;;;4986770;28;20035;-84
2021/12/20 01:15:32;;;;;;;18.70;9.60;;;;;;;;;;4987040;28;20083;-84
2021/12/20 01:17:59;;;;;;;16.40;9.55;;;;;;;;;;4986088;28;20480;-84
2021/12/20 01:20:25;;;;;;;19.58;9.45;;;;;;;;;;4986431;28;20027;-84
2021/12/20 01:22:52;;;;;;;15.45;8.57;;;;;;;;;;4985619;28;20504;-85
2021/12/20 01:25:19;;;;;;;17.75;9.20;;;;;;;;;;4986215;28;20039;-84
2021/12/20 01:27:45;;;;;;;16.17;8.73;;;;;;;;;;4986090;28;20034;-84
2021/12/20 01:30:12;;;;;;;16.00;8.00;;;;;;;;;;4985333;28;20103;-84
2021/12/20 01:32:38;;;;;;;17.58;8.98;;;;;;;;;;4984354;28;20065;-83
2021/12/20 01:35:05;;;;;;;19.42;9.35;;;;;;;;;;4985764;28;20019;-84
2021/12/20 01:37:31;;;;;;;15.90;8.93;;;;;;;;;;4985186;28;20051;-84
2021/12/20 01:39:59;;;;;;;17.83;8.90;;;;;;;;;;4985206;28;20041;-83
2021/12/20 01:42:25;;;;;;;18.85;9.82;;;;;;;;;;4984575;28;20023;-84
2021/12/20 01:44:55;;;;;;;16.42;8.57;;;;;;;;;;4985067;28;20038;-83
2021/12/20 01:47:22;;;;;;;17.25;9.35;;;;;;;;;;4983551;28;20027;-84
2021/12/20 01:49:59;;;;;;;14.55;8.63;;;;;;;;;;4983546;28;20057;-83
2021/12/20 01:52:28;;;;;;;19.33;9.55;;;;;;;;;;4984062;28;20035;-83
2021/12/20 01:54:54;;;;;;;18.33;8.93;;;;;;;;;;4982777;28;20029;-83
2021/12/20 01:57:22;;;;;;;16.10;8.68;;;;;;;;;;4983646;28;20038;-83
2021/12/20 01:59:48;;;;;;;18.40;9.00;;;;;;;;;;4983884;28;20082;-86
2021/12/20 02:02:14;;;;;;;15.02;8.52;;;;;;;;;;4992065;28;20467;-83
2021/12/20 02:04:47;;;;;;;16.50;8.88;;;;;;;;;;4986460;28;20042;-83
2021/12/20 02:07:31;;;;;;;15.23;8.40;;;;;;;;;;4981994;28;20022;-85
2021/12/20 02:09:57;;;;;;;15.93;9.00;;;;;;;;;;4982442;28;20077;-83
2021/12/20 02:12:23;;;;;;;15.05;7.80;;;;;;;;;;4982947;28;20026;-83
2021/12/20 02:14:49;;;;;;;13.30;7.25;;;;;;;;;;4982725;28;20077;-83
2021/12/20 02:17:15;;;;;;;11.52;6.80;;;;;;;;;;4982197;28;20034;-84
2021/12/20 02:19:41;;;;;;;10.70;6.13;;;;;;;;;;4982409;28;20404;-84
2021/12/20 02:22:07;;;;;;;11.80;6.45;;;;;;;;;;4982415;28;20023;-84
2021/12/20 02:24:33;;;;;;;16.08;7.00;;;;;;;;;;4980201;28;20057;-83
2021/12/20 02:26:59;;;;;;;16.70;8.32;;;;;;;;;;4981496;28;20503;-83
2021/12/20 02:29:41;;;;;;;14.80;8.68;;;;;;;;;;4982113;28;20519;-85
2021/12/20 02:37:37;;;;;;;17.27;8.80;;;;;;;;;;4981209;28;20518;-83
2021/12/20 02:40:04;;;;;;;21.80;10.27;;;;;;;;;;4981197;28;20059;-83
2021/12/20 02:42:42;;;;;;;16.52;9.32;;;;;;;;;;4981956;28;20504;-84
2021/12/20 02:45:14;;;;;;;19.30;10.50;;;;;;;;;;4980935;28;20132;-83
2021/12/20 02:47:48;;;;;;;17.58;9.00;;;;;;;;;;4980986;28;20062;-82
2021/12/20 02:50:15;;;;;;;14.57;7.97;;;;;;;;;;4980242;28;20025;-83
2021/12/20 02:52:41;;;;;;;19.35;9.95;;;;;;;;;;4980504;28;20106;-84
2021/12/20 02:55:08;;;;;;;20.70;10.18;;;;;;;;;;4981136;28;20042;-83
2021/12/20 02:57:38;;;;;;;20.73;10.75;;;;;;;;;;4982216;28;20415;-83
2021/12/20 03:00:06;;;;;;;19.07;9.87;;;;;;;;;;4984494;28;20518;-84
2021/12/20 03:02:32;;;;;;;18.77;9.27;;;;;;;;;;4984001;28;20268;-84
2021/12/20 03:04:58;;;;;;;18.08;9.90;;;;;;;;;;4981730;28;20484;-84
2021/12/20 03:07:26;;;;;;;19.48;8.93;;;;;;;;;;4982531;28;20022;-83
2021/12/20 03:09:58;;;;;;;14.55;8.48;;;;;;;;;;4984042;28;20019;-84
2021/12/20 03:12:27;;;;;;;14.40;8.18;;;;;;;;;;4984106;28;20034;-83
2021/12/20 03:15:00;;;;;;;14.30;8.35;;;;;;;;;;4984722;28;20023;-84
2021/12/20 03:17:26;;;;;;;12.68;7.45;;;;;;;;;;4984077;28;20023;-83
2021/12/20 03:19:52;;;;;;;16.58;7.85;;;;;;;;;;4985037;28;20031;-83
2021/12/20 03:22:18;;;;;;;13.73;7.82;;;;;;;;;;4983825;28;20023;-83
2021/12/20 03:24:44;;;;;;;13.15;7.45;;;;;;;;;;4985054;28;20019;-83
2021/12/20 03:27:10;;;;;;;17.02;7.63;;;;;;;;;;4982216;28;20050;-83
2021/12/20 03:29:36;;;;;;;13.32;7.13;;;;;;;;;;4983858;28;20039;-82
2021/12/20 03:32:02;;;;;;;9.75;6.18;;;;;;;;;;4985516;28;20468;-83
2021/12/20 03:34:28;;;;;;;11.07;6.65;;;;;;;;;;4985755;28;20023;-83
2021/12/20 03:36:54;;;;;;;9.40;6.03;;;;;;;;;;4984436;28;20023;-83
2021/12/20 03:39:20;;;;;;;11.45;6.55;;;;;;;;;;4986223;28;20105;-83
2021/12/20 03:41:47;;;;;;;12.75;7.00;;;;;;;;;;4985661;28;20031;-82
2021/12/20 03:44:13;;;;;;;12.75;7.07;;;;;;;;;;4986617;28;20508;-84
2021/12/20 03:46:39;;;;;;;14.10;8.38;;;;;;;;;;4984915;28;20034;-84
2021/12/20 03:49:06;;;;;;;12.65;7.53;;;;;;;;;;4985633;28;20035;-85
2021/12/20 03:51:32;;;;;;;12.50;7.22;;;;;;;;;;4985203;28;20030;-83
2021/12/20 03:53:58;;;;;;;10.68;6.25;;;;;;;;;;4986436;28;20031;-85
2021/12/20 03:56:24;;;;;;;13.43;7.63;;;;;;;;;;4985113;28;20046;-83
2021/12/20 03:58:50;;;;;;;15.15;6.93;;;;;;;;;;4984879;28;20029;-82
2021/12/20 04:01:17;;;;;;;12.75;7.47;;;;;;;;;;4984411;28;20029;-83
2021/12/20 04:03:43;;;;;;;11.27;6.47;;;;;;;;;;5000903;28;20062;-83
2021/12/20 04:06:10;;;;;;;13.32;6.97;;;;;;;;;;4987186;28;20034;-84
2021/12/20 04:08:36;;;;;;;19.20;8.93;;;;;;;;;;4988597;28;20018;-85
2021/12/20 04:11:03;;;;;;;15.52;8.13;;;;;;;;;;4987197;28;20023;-84
2021/12/20 04:13:29;;;;;;;14.13;7.40;;;;;;;;;;4987884;28;20043;-83
2021/12/20 04:15:55;;;;;;;13.73;8.32;;;;;;;;;;4987502;28;20035;-84
2021/12/20 04:18:22;;;;;;;16.67;8.13;;;;;;;;;;4986767;28;20019;-84
2021/12/20 04:20:48;;;;;;;14.70;7.68;;;;;;;;;;4987132;28;20077;-83
2021/12/20 04:23:14;;;;;;;10.93;6.43;;;;;;;;;;4983564;28;20155;-85
2021/12/20 04:25:40;;;;;;;11.77;6.38;;;;;;;;;;4984310;28;20034;-84
2021/12/20 04:28:06;;;;;;;14.88;7.82;;;;;;;;;;4984346;28;20034;-85
2021/12/20 04:30:32;;;;;;;15.85;8.38;;;;;;;;;;4984740;28;20026;-84
2021/12/20 04:32:58;;;;;;;14.68;7.45;;;;;;;;;;4983889;28;20097;-84
2021/12/20 04:35:25;;;;;;;18.90;8.75;;;;;;;;;;4985630;28;20053;-84
2021/12/20 04:37:51;;;;;;;15.38;7.97;;;;;;;;;;4985198;28;20031;-84
2021/12/20 04:40:21;;;;;;;14.02;7.40;;;;;;;;;;4985744;28;20026;-84
2021/12/20 04:42:49;;;;;;;13.57;7.13;;;;;;;;;;4985002;28;20030;-84
2021/12/20 04:45:15;;;;;;;15.77;8.23;;;;;;;;;;4985382;28;20499;-84
2021/12/20 04:47:41;;;;;;;18.65;9.13;;;;;;;;;;4984756;28;20075;-83
2021/12/20 04:50:07;;;;;;;16.33;9.32;;;;;;;;;;4984951;28;20031;-84
2021/12/20 04:52:33;;;;;;;21.45;9.40;;;;;;;;;;4985529;28;20110;-83
2021/12/20 04:54:59;;;;;;;17.63;9.43;;;;;;;;;;4985001;28;20022;-83
2021/12/20 04:57:25;;;;;;;18.42;9.18;;;;;;;;;;4984885;28;20477;-83
2021/12/20 04:59:51;;;;;;;14.68;7.97;;;;;;;;;;4984950;28;20038;-83
2021/12/20 05:02:17;;;;;;;15.02;8.40;;;;;;;;;;4981899;28;20033;-82
2021/12/20 05:04:43;;;;;;;19.42;8.77;;;;;;;;;;4984573;28;20035;-84
2021/12/20 05:07:09;;;;;;;17.30;7.93;;;;;;;;;;4984379;28;20058;-83
2021/12/20 05:09:39;;;;;;;14.90;8.15;;;;;;;;;;4983877;28;20408;-83
2021/12/20 05:12:12;;;;;;;15.68;8.45;;;;;;;;;;4982884;28;20153;-83
2021/12/20 05:14:45;;;;;;;19.55;9.32;;;;;;;;;;4981258;28;20031;-84
2021/12/20 05:17:12;;;;;;;17.38;9.25;;;;;;;;;;4970203;29;20023;-84
2021/12/20 05:19:42;;;;;;;15.38;8.27;;;;;;;;;;4969139;29;20038;-84
2021/12/20 05:22:08;;;;;;;16.77;9.48;;;;;;;;;;4968871;28;20512;-84
2021/12/20 05:24:34;;;;;;;17.10;9.30;;;;;;;;;;4985525;28;20041;-83
2021/12/20 05:27:00;;;;;;;19.73;9.40;;;;;;;;;;4984122;28;20030;-81
2021/12/20 05:29:26;;;;;;;16.70;9.85;;;;;;;;;;4985548;28;20389;-82
2021/12/20 05:31:52;;;;;;;17.48;9.43;;;;;;;;;;4984954;28;20023;-82
2021/12/20 05:34:19;;;;;;;19.05;9.70;;;;;;;;;;4980690;28;20019;-82
2021/12/20 05:36:45;;;;;;;20.85;8.55;;;;;;;;;;4963338;29;20031;-83
2021/12/20 05:39:12;;;;;;;16.65;8.10;;;;;;;;;;4964903;29;20103;-82
2021/12/20 05:41:37;;;;;;;17.02;8.30;;;;;;;;;;4963492;28;20046;-82
2021/12/20 05:44:04;;;;;;;14.80;7.63;;;;;;;;;;4963273;29;20051;-83
2021/12/20 05:46:30;;;;;;;18.40;9.60;;;;;;;;;;4963784;29;20035;-83
2021/12/20 05:48:56;;;;;;;17.75;7.93;;;;;;;;;;4962610;29;20126;-82
2021/12/20 05:51:22;;;;;;;16.52;8.23;;;;;;;;;;4963711;28;20062;-82
2021/12/20 05:53:48;;;;;;;21.80;9.15;;;;;;;;;;4964354;29;20031;-82
2021/12/20 05:56:14;;;;;;;19.98;9.02;;;;;;;;;;4962945;29;20027;-82
2021/12/20 05:58:40;;;;;;;16.92;8.95;;;;;;;;;;4962573;29;20038;-82
2021/12/20 06:01:06;;;;;;;15.70;7.95;;;;;;;;;;4961903;29;20035;-82
2021/12/20 06:03:32;;;;;;;17.75;8.35;;;;;;;;;;4963325;28;20023;-82
2021/12/20 06:05:58;;;;;;;18.42;8.80;;;;;;;;;;4963644;29;20516;-82
2021/12/20 06:08:24;;;;;;;13.70;7.05;;;;;;;;;;4966922;29;20031;-82
2021/12/20 06:10:50;;;;;;;18.05;8.55;;;;;;;;;;4973563;29;20049;-82
2021/12/20 06:13:16;;;;;;;16.08;8.40;;;;;;;;;;4973256;28;20062;-83
2021/12/20 06:15:42;;;;;;;16.25;7.53;;;;;;;;;;4979978;28;20022;-84
2021/12/20 06:18:08;;;;;;;18.38;8.13;;;;;;;;;;4986971;28;20204;-83
2021/12/20 06:20:34;;;;;;;16.88;8.27;;;;;;;;;;4986535;28;20090;-83
2021/12/20 06:23:00;;;;;;;16.55;8.35;;;;;;;;;;4984506;28;20030;-83
2021/12/20 06:25:26;;;;;;;17.30;9.10;;;;;;;;;;4989999;28;20023;-83
2021/12/20 06:27:53;;;;;;;15.18;7.03;;;;;;;;;;4991332;28;20031;-83
2021/12/20 06:30:19;;;;;;;18.27;7.72;;;;;;;;;;4978249;28;20057;-82
2021/12/20 06:32:45;;;;;;;14.77;7.38;;;;;;;;;;4978031;28;20032;-83
2021/12/20 06:35:13;;;;;;;15.30;7.15;;;;;;;;;;4977958;28;20544;-83
2021/12/20 06:37:39;;;;;;;13.65;6.45;;;;;;;;;;4978036;28;20019;-84
2021/12/20 06:40:06;;;;;;;13.45;6.65;;;;;;;;;;4978645;28;20479;-83
2021/12/20 06:42:32;;;;;;;14.95;6.95;;;;;;;;;;4981184;28;20075;-83
2021/12/20 06:44:58;;;;;;;12.57;6.43;;;;;;;;;;4979507;28;20027;-83
2021/12/20 06:47:24;;;;;;;20.05;8.30;;;;;;;;;;4980146;28;20042;-82
2021/12/20 06:49:50;;;;;;;12.48;6.63;;;;;;;;;;4979628;28;20102;-82
2021/12/20 06:52:16;;;;;;;16.67;6.88;;;;;;;;;;4978674;28;20054;-82
2021/12/20 06:54:42;;;;;;;14.38;7.38;;;;;;;;;;4977970;28;20041;-83
2021/12/20 06:57:08;;;;;;;13.25;7.47;;;;;;;;;;4979707;28;20476;-82
2021/12/20 06:59:34;;;;;;;12.50;6.57;;;;;;;;;;4995088;28;20019;-83
2021/12/20 07:02:00;;;;;;;15.15;6.38;;;;;;;;;;4990673;28;20034;-82
2021/12/20 07:04:26;;;;;;;14.77;6.13;;;;;;;;;;4984834;28;20038;-82
2021/12/20 07:06:53;;;;;;;17.70;6.40;;;;;;;;;;4984110;28;20440;-85
2021/12/20 07:09:19;;;;;;;12.07;6.32;;;;;;;;;;4982399;28;20027;-82
2021/12/20 07:11:45;;;;;;;11.35;6.32;;;;;;;;;;4983772;28;20086;-82
2021/12/20 07:14:11;;;;;;;13.75;5.65;;;;;;;;;;4982736;28;20054;-82
2021/12/20 07:16:40;;;;;;;10.75;6.15;;;;;;;;;;4979395;28;20556;-82
2021/12/20 07:19:06;;;;;;;10.23;5.10;;;;;;;;;;4976070;28;20499;-81
2021/12/20 07:21:32;;;;;;;14.98;6.15;;;;;;;;;;4977361;28;20061;-81
2021/12/20 07:23:58;;;;;;;13.70;5.90;;;;;;;;;;4977361;28;20138;-83
2021/12/20 07:26:24;;;;;;;10.30;5.30;;;;;;;;;;4976980;28;20031;-83
2021/12/20 07:28:50;;;;;;;14.63;6.03;;;;;;;;;;4976841;28;20026;-82
2021/12/20 07:31:16;;;;;;;9.80;5.50;;;;;;;;;;4977410;28;20045;-83
2021/12/20 07:33:44;;;;;;;9.18;5.47;;;;;;;;;;4977203;28;20051;-82
2021/12/20 07:36:11;;;;;;;11.60;5.65;;;;;;;;;;4977612;28;20547;-83
2021/12/20 07:38:37;;;;;;;17.17;5.72;;;;;;;;;;4977757;28;20041;-83
2021/12/20 07:41:04;;;;;;;11.40;5.07;;;;;;;;;;4978831;28;20091;-82
2021/12/20 07:43:30;;;;;;;12.85;4.60;;;;;;;;;;4978943;28;20034;-83
2021/12/20 07:45:56;;;;;;;10.43;4.75;;;;;;;;;;4980847;28;20436;-83
2021/12/20 07:48:22;;;;;;;8.05;4.30;;;;;;;;;;4981323;28;20026;-82
2021/12/20 07:50:49;;;;;;;15.63;4.60;;;;;;;;;;4982629;28;20030;-82
2021/12/20 07:53:15;;;;;;;7.13;3.88;;;;;;;;;;4983613;28;20041;-82
2021/12/20 07:55:41;;;;;;;10.27;5.70;;;;;;;;;;4983952;28;20023;-82
2021/12/20 07:58:08;;;;;;;10.20;5.10;;;;;;;;;;4985267;28;20435;-82
2021/12/20 08:00:34;;;;;;;11.93;5.18;;;;;;;;;;4984326;28;20030;-80
2021/12/20 08:03:00;;;;;;;12.48;5.40;;;;;;;;;;4982109;28;20030;-81
2021/12/20 08:05:27;;;;;;;10.68;4.90;;;;;;;;;;4981587;28;20411;-81
2021/12/20 08:07:54;;;;;;;7.47;4.60;;;;;;;;;;4981083;28;20480;-82
2021/12/20 08:10:21;;;;;;;12.05;5.25;;;;;;;;;;4983420;28;20050;-82
2021/12/20 08:12:47;;;;;;;8.45;4.28;;;;;;;;;;4982870;28;20195;-82
2021/12/20 08:15:13;;;;;;;7.45;4.90;;;;;;;;;;4984631;28;20026;-83
2021/12/20 08:17:40;;;;;;;6.65;4.63;;;;;;;;;;4982641;28;20054;-83
2021/12/20 08:20:07;;;;;;;9.43;5.13;;;;;;;;;;4984255;28;20030;-81
2021/12/20 08:22:33;;;;;;;12.80;7.18;;;;;;;;;;4997115;28;20027;-81
2021/12/20 08:24:59;;;;;;;13.43;6.22;;;;;;;;;;4997152;28;20053;-82
2021/12/20 08:27:25;;;;;;;14.77;6.75;;;;;;;;;;4989789;28;20396;-83
2021/12/20 08:29:51;;;;;;;9.38;5.20;;;;;;;;;;4989239;28;20037;-82
2021/12/20 08:32:17;;;;;;;10.13;4.57;;;;;;;;;;4990244;28;20023;-82
2021/12/20 08:34:43;;;;;;;15.45;6.55;;;;;;;;;;4989726;28;20027;-82
2021/12/20 08:37:09;;;;;;;9.88;6.18;;;;;;;;;;4987967;28;20023;-82
2021/12/20 08:39:35;;;;;;;11.60;5.43;;;;;;;;;;4985956;28;20062;-81
2021/12/20 08:42:03;;;;;;;8.35;4.47;;;;;;;;;;4987765;28;20023;-81
2021/12/20 08:44:29;;;;;;;6.82;4.45;;;;;;;;;;4987911;28;20038;-81
2021/12/20 08:46:55;;;;;;;6.20;4.32;;;;;;;;;;4987317;28;20440;-84
2021/12/20 08:49:22;;;;;;;7.97;4.63;;;;;;;;;;4986608;28;20054;-81
2021/12/20 08:51:48;;;;;;;8.30;4.13;;;;;;;;;;4986466;28;20023;-82
2021/12/20 08:54:14;;;;;;;11.77;5.47;;;;;;;;;;4986280;28;20038;-82
2021/12/20 08:56:40;;;;;;;13.77;5.25;;;;;;;;;;4985359;28;20037;-82
2021/12/20 08:59:07;;;;;;;7.78;4.20;;;;;;;;;;4984313;28;20094;-82
2021/12/20 09:01:33;;;;;;;7.80;3.63;;;;;;;;;;4983883;28;20119;-82
2021/12/20 09:03:59;;;;;;;8.95;4.63;;;;;;;;;;4984042;28;20027;-82
2021/12/20 09:06:27;;;;;;;8.93;3.90;;;;;;;;;;4985195;28;20035;-82
2021/12/20 09:08:54;;;;;;;11.48;4.80;;;;;;;;;;4984910;28;20022;-82
2021/12/20 09:11:22;;;;;;;7.20;3.65;;;;;;;;;;4984509;28;20030;-82
2021/12/20 09:13:48;;;;;;;9.98;3.90;;;;;;;;;;4985015;28;20046;-82
2021/12/20 09:16:14;;;;;;;9.57;3.90;;;;;;;;;;4985407;28;20027;-82
2021/12/20 09:18:40;;;;;;;8.75;5.05;;;;;;;;;;4985082;28;20023;-82
2021/12/20 09:21:09;;;;;;;8.55;3.90;;;;;;;;;;4984918;28;20039;-82
2021/12/20 09:23:35;;;;;;;9.23;4.15;;;;;;;;;;4982086;28;20034;-82
2021/12/20 09:26:01;;;;;;;10.07;3.95;;;;;;;;;;4983097;28;20033;-82
2021/12/20 09:28:27;;;;;;;7.38;4.38;;;;;;;;;;4983113;28;20563;-82
2021/12/20 09:30:53;;;;;;;10.05;3.92;;;;;;;;;;4982886;28;20033;-82
2021/12/20 09:33:19;;;;;;;8.63;3.85;;;;;;;;;;4983113;28;20559;-82
2021/12/20 09:35:46;;;;;;;8.90;4.18;;;;;;;;;;4982577;28;20094;-82
2021/12/20 09:38:16;;;;;;;10.57;3.72;;;;;;;;;;4982078;28;20035;-82
2021/12/20 09:41:01;;;;;;;12.00;3.37;;;;;;;;;;4984392;28;20582;-84
2021/12/20 09:43:27;;;;;;;12.23;3.22;;;;;;;;;;4982647;28;20266;-82
2021/12/20 09:45:55;;;;;;;6.95;3.00;;;;;;;;;;4983746;28;20027;-82
2021/12/20 09:48:21;;;;;;;6.75;3.05;;;;;;;;;;4983071;28;20560;-82
2021/12/20 09:50:47;;;;;;;8.98;3.33;;;;;;;;;;4983382;28;20066;-81
2021/12/20 09:53:14;;;;;;;7.85;3.63;;;;;;;;;;4982469;28;20058;-82
2021/12/20 09:55:43;;;;;;;5.88;3.33;;;;;;;;;;4981309;28;20022;-82
2021/12/20 09:58:09;;;;;;;10.35;3.42;;;;;;;;;;4981840;28;20109;-82
2021/12/20 10:00:35;;;;;;;7.45;3.22;;;;;;;;;;4981924;28;20086;-82
2021/12/20 10:03:02;;;;;;;7.22;2.80;;;;;;;;;;4978970;28;20090;-81
2021/12/20 10:05:28;;;;;;;9.63;2.92;;;;;;;;;;4981869;28;20058;-82
2021/12/20 10:07:56;;;;;;;11.07;3.78;;;;;;;;;;4980487;28;20480;-82
2021/12/20 10:10:36;;;;;;;7.05;3.17;;;;;;;;;;4981329;28;20023;-82
2021/12/20 10:13:02;;;;;;;9.13;3.50;;;;;;;;;;4981553;28;20029;-82
2021/12/20 10:15:36;;;;;;;7.43;3.55;;;;;;;;;;4981404;28;20023;-82
2021/12/20 10:18:02;;;;;;;9.98;3.75;;;;;;;;;;4982678;28;20058;-82
2021/12/20 10:20:32;;;;;;;10.30;3.00;;;;;;;;;;4980236;28;20037;-84
2021/12/20 10:23:09;;;;;;;10.85;3.42;;;;;;;;;;4979618;28;20110;-84
2021/12/20 10:25:36;;;;;;;9.40;3.10;;;;;;;;;;4980660;28;20027;-84
2021/12/20 10:28:07;;;;;;;10.95;3.10;;;;;;;;;;4977826;28;20124;-83
2021/12/20 10:30:34;;;;;;;12.10;3.80;;;;;;;;;;4981293;28;20038;-84
2021/12/20 10:33:02;;;;;;;8.20;3.55;;;;;;;;;;4980681;28;20018;-84
2021/12/20 10:35:37;;;;;;;12.90;2.95;;;;;;;;;;4979167;28;20146;-84
2021/12/20 10:38:08;;;;;;;8.95;3.33;;;;;;;;;;4979518;28;20031;-84
2021/12/20 10:40:35;;;;;;;11.10;2.97;;;;;;;;;;4978613;28;20031;-84
2021/12/20 10:43:05;;;;;;;8.68;2.55;;;;;;;;;;4978614;28;20045;-83
2021/12/20 10:45:31;;;;;;;8.35;3.13;;;;;;;;;;4981167;28;20090;-85
2021/12/20 10:48:08;;;;;;;10.15;3.20;;;;;;;;;;4979183;28;20026;-84
2021/12/20 10:50:42;;;;;;;8.63;3.20;;;;;;;;;;4980486;28;20030;-85
2021/12/20 10:53:20;;;;;;;8.85;3.65;;;;;;;;;;4978573;28;20087;-85
2021/12/20 10:55:48;;;;;;;11.25;3.17;;;;;;;;;;4979310;28;20039;-85
2021/12/20 10:58:30;;;;;;;8.48;3.40;;;;;;;;;;4979347;28;20019;-85
2021/12/20 11:01:14;;;;;;;9.65;3.45;;;;;;;;;;4980154;28;20082;-85
2021/12/20 11:03:42;;;;;;;10.63;3.65;;;;;;;;;;4978934;28;20023;-85
2021/12/20 11:11:29;;;;;;;12.73;3.35;;;;;;;;;;4978318;28;20109;-85
2021/12/20 11:13:57;;;;;;;16.30;3.35;;;;;;;;;;4980446;28;20030;-84
2021/12/20 11:16:27;;;;;;;11.35;3.35;;;;;;;;;;4977638;28;20069;-85
2021/12/20 11:19:12;;;;;;;7.05;3.10;;;;;;;;;;4979227;28;20021;-84
2021/12/20 11:21:39;;;;;;;7.93;3.38;;;;;;;;;;4986437;28;20054;-84
2021/12/20 11:24:15;;;;;;;11.63;3.22;;;;;;;;;;4981256;28;20030;-84
2021/12/20 11:26:42;;;;;;;4.97;2.10;;;;;;;;;;4981343;28;20019;-85
2021/12/20 11:29:09;;;;;;;5.43;2.55;;;;;;;;;;4982201;28;20531;-84
2021/12/20 11:31:37;;;;;;;6.70;2.25;;;;;;;;;;4990830;28;20015;-84
2021/12/20 11:34:12;;;;;;;9.68;2.45;;;;;;;;;;4995808;28;20030;-84
2021/12/20 11:36:39;;;;;;;7.10;3.17;;;;;;;;;;4996114;28;20081;-84
2021/12/20 11:39:06;;;;;;;8.35;2.30;;;;;;;;;;4986152;28;20185;-84
2021/12/20 11:41:32;;;;;;;7.32;2.17;;;;;;;;;;4983481;28;20019;-85
2021/12/20 11:43:59;;;;;;;8.65;2.65;;;;;;;;;;4983583;28;20023;-83
2021/12/20 11:46:30;;;;;;;11.10;2.78;;;;;;;;;;4981846;28;20917;-83
2021/12/20 11:48:57;;;;;;;6.25;2.45;;;;;;;;;;4982660;28;20111;-83
2021/12/20 11:51:23;;;;;;;9.57;2.33;;;;;;;;;;4981258;28;20164;-85
2021/12/20 11:53:52;;;;;;;10.48;3.08;;;;;;;;;;4981343;28;20453;-83
2021/12/20 11:56:34;;;;;;;14.63;2.50;;;;;;;;;;4983191;28;20119;-83
2021/12/20 11:59:01;;;;;;;6.13;2.50;;;;;;;;;;4988981;28;20057;-84
2021/12/20 12:01:27;;;;;;;11.80;2.50;;;;;;;;;;4988378;28;20022;-84
2021/12/20 12:03:54;;;;;;;13.23;2.75;;;;;;;;;;5006269;28;20026;-85
2021/12/20 12:06:28;;;;;;;13.85;2.42;;;;;;;;;;5003627;28;20022;-84
2021/12/20 12:08:58;;;;;;;11.05;2.97;;;;;;;;;;5004373;28;20026;-84
2021/12/20 12:11:24;;;;;;;10.65;2.75;;;;;;;;;;5003515;28;20067;-84
2021/12/20 12:14:04;;;;;;;8.38;2.45;;;;;;;;;;5002520;28;20022;-84
2021/12/20 12:16:49;;;;;;;8.00;2.13;;;;;;;;;;4984191;28;20034;-84
2021/12/20 12:19:35;;;;;;;12.85;2.38;;;;;;;;;;4981812;28;20023;-83
2021/12/20 12:22:01;;;;;;;7.07;2.25;;;;;;;;;;4983033;28;20127;-83
2021/12/20 12:24:44;;;;;;;7.97;2.38;;;;;;;;;;4982557;28;20034;-84
2021/12/20 12:27:20;;;;;;;7.38;2.38;;;;;;;;;;4982633;28;20073;-85
2021/12/20 12:29:47;;;;;;;9.57;2.28;;;;;;;;;;4982741;28;20051;-85
2021/12/20 12:32:13;;;;;;;12.38;2.35;;;;;;;;;;4979428;28;20019;-83
2021/12/20 12:34:40;;;;;;;5.72;1.77;;;;;;;;;;4979551;28;20547;-84
2021/12/20 12:37:19;;;;;;;19.58;2.92;;;;;;;;;;4981350;28;20552;-84
2021/12/20 12:39:45;;;;;;;10.80;2.10;;;;;;;;;;4982801;28;20027;-84
2021/12/20 12:42:11;;;;;;;10.75;2.33;;;;;;;;;;4981280;28;20026;-84
2021/12/20 12:44:37;;;;;;;7.82;1.90;;;;;;;;;;4981332;28;20447;-85
2021/12/20 12:47:13;;;;;;;6.68;1.88;;;;;;;;;;4980953;28;20077;-84
2021/12/20 12:49:45;;;;;;;6.22;1.73;;;;;;;;;;4981422;28;20102;-83
2021/12/20 12:52:17;;;;;;;8.73;2.00;;;;;;;;;;4981853;28;20046;-84
2021/12/20 12:54:43;;;;;;;5.68;1.80;;;;;;;;;;4979734;28;20038;-84
2021/12/20 12:57:09;;;;;;;10.57;2.45;;;;;;;;;;4980504;28;20366;-84
2021/12/20 12:59:52;;;;;;;10.07;1.98;;;;;;;;;;4978990;28;20118;-84
2021/12/20 13:02:22;;;;;;;10.10;2.47;;;;;;;;;;4981434;28;20023;-82
2021/12/20 13:04:51;;;;;;;8.32;2.15;;;;;;;;;;4984382;28;20031;-84
2021/12/20 13:07:17;;;;;;;5.72;2.05;;;;;;;;;;4995549;28;20027;-83
2021/12/20 13:09:45;;;;;;;7.55;2.35;;;;;;;;;;4995709;28;20022;-84
2021/12/20 13:12:19;;;;;;;8.35;2.45;;;;;;;;;;4988187;28;20392;-82
2021/12/20 13:14:52;;;;;;;11.13;2.00;;;;;;;;;;4983092;28;20027;-84
2021/12/20 13:17:41;;;;;;;10.82;2.03;;;;;;;;;;4982725;28;20038;-83
2021/12/20 13:22:53;;;;;;;10.98;2.50;;;;;;;;;;4982028;28;20525;-83
2021/12/20 13:25:52;;;;;;;10.25;2.13;;;;;;;;;;4981899;28;20034;-83
2021/12/20 13:28:21;;;;;;;9.60;2.78;;;;;;;;;;4969533;28;20492;-83
2021/12/20 13:30:52;;;;;;;9.75;2.20;;;;;;;;;;4980928;28;20105;-83
2021/12/20 13:33:20;;;;;;;9.50;2.30;;;;;;;;;;4980494;28;20030;-83
2021/12/20 13:35:46;;;;;;;7.22;2.50;;;;;;;;;;4980596;28;20699;-83
2021/12/20 13:38:14;;;;;;;4.55;2.20;;;;;;;;;;4980341;28;20039;-83
2021/12/20 13:40:44;;;;;;;11.57;2.03;;;;;;;;;;4982561;28;20035;-83
2021/12/20 13:43:10;;;;;;;10.55;2.60;;;;;;;;;;4978349;28;20039;-83
2021/12/20 13:45:36;;;;;;;8.80;1.88;;;;;;;;;;4980738;28;20369;-85
2021/12/20 13:48:06;;;;;;;4.25;2.05;;;;;;;;;;4979658;28;20027;-85
2021/12/20 13:50:32;;;;;;;9.43;1.80;;;;;;;;;;4979875;28;20053;-83
2021/12/20 13:52:58;;;;;;;6.32;1.95;;;;;;;;;;4979741;28;20023;-85
2021/12/20 13:55:24;;;;;;;8.35;1.83;;;;;;;;;;4980085;28;20035;-83
2021/12/20 13:57:50;;;;;;;8.52;2.47;;;;;;;;;;4980302;28;20027;-82
2021/12/20 14:00:16;;;;;;;8.55;1.95;;;;;;;;;;4980048;28;20511;-84
2021/12/20 14:02:44;;;;;;;6.40;2.00;;;;;;;;;;4979739;28;20039;-83
2021/12/20 14:05:15;;;;;;;10.57;2.55;;;;;;;;;;4982911;28;20116;-83
2021/12/20 14:07:44;;;;;;;7.90;2.03;;;;;;;;;;4979602;28;20037;-83
2021/12/20 14:10:15;;;;;;;6.93;2.15;;;;;;;;;;4979599;28;20023;-83
2021/12/20 14:12:42;;;;;;;12.82;2.53;;;;;;;;;;4979671;28;20030;-84
2021/12/20 14:15:25;;;;;;;8.73;2.53;;;;;;;;;;4977606;28;20054;-84
2021/12/20 14:17:51;;;;;;;11.02;2.75;;;;;;;;;;4978402;28;20496;-83
2021/12/20 14:20:17;;;;;;;15.95;2.88;;;;;;;;;;4979673;28;20027;-84
2021/12/20 14:23:00;;;;;;;11.63;2.55;;;;;;;;;;4978647;28;20520;-84
2021/12/20 14:25:49;;;;;;;9.20;2.95;;;;;;;;;;4976520;28;20023;-83
2021/12/20 14:28:16;;;;;;;9.88;2.90;;;;;;;;;;4972864;28;20125;-84
2021/12/20 14:30:47;;;;;;;18.40;3.38;;;;;;;;;;4975869;28;20114;-82
2021/12/20 14:33:17;;;;;;;9.73;2.78;;;;;;;;;;4975238;28;20023;-83
2021/12/20 14:35:49;;;;;;;7.78;3.42;;;;;;;;;;4975440;28;20035;-83
2021/12/20 14:38:32;;;;;;;13.40;3.35;;;;;;;;;;4956460;28;20027;-83
2021/12/20 14:40:59;;;;;;;10.40;2.28;;;;;;;;;;4955235;28;20031;-83
2021/12/20 14:43:32;;;;;;;12.23;2.70;;;;;;;;;;4956246;28;20037;-84
2021/12/20 14:46:09;;;;;;;5.97;2.20;;;;;;;;;;4957100;28;20040;-84
2021/12/20 14:48:46;;;;;;;9.05;2.40;;;;;;;;;;4958311;28;20087;-84
2021/12/20 14:51:16;;;;;;;8.73;2.58;;;;;;;;;;4955604;28;20035;-83
2021/12/20 14:53:42;;;;;;;8.77;2.72;;;;;;;;;;4957118;28;20086;-84
2021/12/20 14:56:09;;;;;;;10.80;2.25;;;;;;;;;;4959344;28;20031;-83